sensor_id;sensor_type;location;lat;lon;timestamp;P1;durP1;ratioP1;P2;durP2;ratioP2
8526;SDS011;4301;48.362;8.478;2023-05-10T00:02:03;0.40;;;0.40;;
8526;SDS011;4301;48.362;8.478;2023-05-10T00:04:30;0.40;;;0.40;;
8526;SDS011;4301;48.362;8.478;2023-05-10T00:06:57;0.50;;;0.50;;
8526;SDS011;4301;48.362;8.478;2023-05-10T00:09:24;0.60;;;0.60;;
8526;SDS011;4301;48.362;8.478;2023-05-10T00:11:51;0.50;;;0.50;;
8526;SDS011;4301;48.362;8.478;2023-05-10T00:14:18;0.60;;;0.60;;
8526;SDS011;4301;48.362;8.478;2023-05-10T00:16:46;1.50;;;0.70;;
8526;SDS011;4301;48.362;8.478;2023-05-10T00:19:13;0.57;;;0.57;;
8526;SDS011;4301;48.362;8.478;2023-05-10T00:21:40;1.53;;;0.50;;
8526;SDS011;4301;48.362;8.478;2023-05-10T00:24:07;0.60;;;0.60;;
8526;SDS011;4301;48.362;8.478;2023-05-10T00:26:34;0.60;;;0.60;;
8526;SDS011;4301;48.362;8.478;2023-05-10T00:29:01;0.60;;;0.60;;
8526;SDS011;4301;48.362;8.478;2023-05-10T00:31:28;0.90;;;0.63;;
8526;SDS011;4301;48.362;8.478;2023-05-10T00:33:56;0.50;;;0.50;;
8526;SDS011;4301;48.362;8.478;2023-05-10T00:36:23;1.80;;;0.70;;
8526;SDS011;4301;48.362;8.478;2023-05-10T00:38:50;0.53;;;0.53;;
8526;SDS011;4301;48.362;8.478;2023-05-10T00:41:16;0.50;;;0.50;;
8526;SDS011;4301;48.362;8.478;2023-05-10T00:43:43;0.70;;;0.70;;
8526;SDS011;4301;48.362;8.478;2023-05-10T00:46:10;0.80;;;0.80;;
8526;SDS011;4301;48.362;8.478;2023-05-10T00:48:38;0.80;;;0.80;;
8526;SDS011;4301;48.362;8.478;2023-05-10T00:51:06;0.97;;;0.60;;
8526;SDS011;4301;48.362;8.478;2023-05-10T00:53:33;1.07;;;0.70;;
8526;SDS011;4301;48.362;8.478;2023-05-10T00:56:01;1.80;;;0.77;;
8526;SDS011;4301;48.362;8.478;2023-05-10T00:58:28;0.50;;;0.50;;
8526;SDS011;4301;48.362;8.478;2023-05-10T01:00:56;0.53;;;0.53;;
8526;SDS011;4301;48.362;8.478;2023-05-10T01:03:24;0.77;;;0.67;;
8526;SDS011;4301;48.362;8.478;2023-05-10T01:05:51;0.80;;;0.60;;
8526;SDS011;4301;48.362;8.478;2023-05-10T01:08:19;0.70;;;0.70;;
8526;SDS011;4301;48.362;8.478;2023-05-10T01:10:47;0.60;;;0.60;;
8526;SDS011;4301;48.362;8.478;2023-05-10T01:13:15;0.70;;;0.70;;
8526;SDS011;4301;48.362;8.478;2023-05-10T01:15:49;0.83;;;0.83;;
8526;SDS011;4301;48.362;8.478;2023-05-10T01:18:16;0.70;;;0.70;;
8526;SDS011;4301;48.362;8.478;2023-05-10T01:20:46;1.07;;;1.00;;
8526;SDS011;4301;48.362;8.478;2023-05-10T01:23:33;0.67;;;0.67;;
8526;SDS011;4301;48.362;8.478;2023-05-10T01:26:19;0.70;;;0.70;;
8526;SDS011;4301;48.362;8.478;2023-05-10T01:29:11;0.70;;;0.70;;
8526;SDS011;4301;48.362;8.478;2023-05-10T01:32:06;2.30;;;0.80;;
8526;SDS011;4301;48.362;8.478;2023-05-10T01:34:48;0.70;;;0.70;;
8526;SDS011;4301;48.362;8.478;2023-05-10T01:37:21;1.80;;;0.70;;
8526;SDS011;4301;48.362;8.478;2023-05-10T01:39:57;0.80;;;0.80;;
8526;SDS011;4301;48.362;8.478;2023-05-10T01:42:30;0.80;;;0.80;;
8526;SDS011;4301;48.362;8.478;2023-05-10T01:45:06;0.70;;;0.70;;
8526;SDS011;4301;48.362;8.478;2023-05-10T01:47:41;0.70;;;0.70;;
8526;SDS011;4301;48.362;8.478;2023-05-10T01:50:10;0.73;;;0.73;;
8526;SDS011;4301;48.362;8.478;2023-05-10T01:52:44;0.80;;;0.80;;
8526;SDS011;4301;48.362;8.478;2023-05-10T01:55:17;0.63;;;0.63;;
8526;SDS011;4301;48.362;8.478;2023-05-10T01:57:46;1.40;;;0.83;;
8526;SDS011;4301;48.362;8.478;2023-05-10T02:00:15;0.93;;;0.80;;
8526;SDS011;4301;48.362;8.478;2023-05-10T02:02:45;1.13;;;1.00;;
8526;SDS011;4301;48.362;8.478;2023-05-10T02:05:15;0.70;;;0.70;;
8526;SDS011;4301;48.362;8.478;2023-05-10T02:07:43;1.70;;;0.80;;
8526;SDS011;4301;48.362;8.478;2023-05-10T02:10:11;0.87;;;0.80;;
8526;SDS011;4301;48.362;8.478;2023-05-10T02:12:40;0.70;;;0.70;;
8526;SDS011;4301;48.362;8.478;2023-05-10T02:15:10;0.83;;;0.83;;
8526;SDS011;4301;48.362;8.478;2023-05-10T02:17:38;0.77;;;0.77;;
8526;SDS011;4301;48.362;8.478;2023-05-10T02:20:09;0.80;;;0.80;;
8526;SDS011;4301;48.362;8.478;2023-05-10T02:22:37;0.77;;;0.77;;
8526;SDS011;4301;48.362;8.478;2023-05-10T02:25:06;0.70;;;0.70;;
8526;SDS011;4301;48.362;8.478;2023-05-10T02:27:35;0.70;;;0.70;;
8526;SDS011;4301;48.362;8.478;2023-05-10T02:30:03;0.80;;;0.80;;
8526;SDS011;4301;48.362;8.478;2023-05-10T02:32:32;0.73;;;0.73;;
8526;SDS011;4301;48.362;8.478;2023-05-10T02:35:01;0.60;;;0.60;;
8526;SDS011;4301;48.362;8.478;2023-05-10T02:37:30;0.80;;;0.80;;
8526;SDS011;4301;48.362;8.478;2023-05-10T02:39:59;0.70;;;0.70;;
8526;SDS011;4301;48.362;8.478;2023-05-10T02:42:29;0.70;;;0.70;;
8526;SDS011;4301;48.362;8.478;2023-05-10T02:44:59;0.80;;;0.80;;
8526;SDS011;4301;48.362;8.478;2023-05-10T02:47:28;0.80;;;0.80;;
8526;SDS011;4301;48.362;8.478;2023-05-10T02:49:55;2.97;;;0.87;;
8526;SDS011;4301;48.362;8.478;2023-05-10T02:52:23;0.70;;;0.70;;
8526;SDS011;4301;48.362;8.478;2023-05-10T02:54:54;1.67;;;0.80;;
8526;SDS011;4301;48.362;8.478;2023-05-10T02:57:25;1.53;;;1.00;;
8526;SDS011;4301;48.362;8.478;2023-05-10T02:59:54;0.70;;;0.70;;
8526;SDS011;4301;48.362;8.478;2023-05-10T03:02:21;0.80;;;0.80;;
8526;SDS011;4301;48.362;8.478;2023-05-10T03:04:48;0.80;;;0.70;;
8526;SDS011;4301;48.362;8.478;2023-05-10T03:07:16;1.07;;;1.07;;
8526;SDS011;4301;48.362;8.478;2023-05-10T03:09:46;1.00;;;1.00;;
8526;SDS011;4301;48.362;8.478;2023-05-10T03:12:15;2.37;;;0.80;;
8526;SDS011;4301;48.362;8.478;2023-05-10T03:14:53;0.90;;;0.90;;
8526;SDS011;4301;48.362;8.478;2023-05-10T03:17:25;0.90;;;0.90;;
8526;SDS011;4301;48.362;8.478;2023-05-10T03:19:57;1.00;;;0.90;;
8526;SDS011;4301;48.362;8.478;2023-05-10T03:22:30;1.97;;;0.90;;
8526;SDS011;4301;48.362;8.478;2023-05-10T03:24:58;1.40;;;1.03;;
8526;SDS011;4301;48.362;8.478;2023-05-10T03:27:32;2.20;;;1.00;;
8526;SDS011;4301;48.362;8.478;2023-05-10T03:30:00;1.33;;;1.03;;
8526;SDS011;4301;48.362;8.478;2023-05-10T03:32:28;0.90;;;0.90;;
8526;SDS011;4301;48.362;8.478;2023-05-10T03:34:56;1.10;;;1.00;;
8526;SDS011;4301;48.362;8.478;2023-05-10T03:37:23;0.83;;;0.83;;
8526;SDS011;4301;48.362;8.478;2023-05-10T03:39:50;1.10;;;1.00;;
8526;SDS011;4301;48.362;8.478;2023-05-10T03:42:17;1.13;;;1.13;;
8526;SDS011;4301;48.362;8.478;2023-05-10T03:44:46;1.10;;;1.10;;
8526;SDS011;4301;48.362;8.478;2023-05-10T03:47:14;1.00;;;1.00;;
8526;SDS011;4301;48.362;8.478;2023-05-10T03:49:41;1.60;;;1.50;;
8526;SDS011;4301;48.362;8.478;2023-05-10T03:52:08;1.20;;;1.20;;
8526;SDS011;4301;48.362;8.478;2023-05-10T03:54:34;2.13;;;1.20;;
8526;SDS011;4301;48.362;8.478;2023-05-10T03:57:01;1.50;;;1.40;;
8526;SDS011;4301;48.362;8.478;2023-05-10T03:59:29;1.73;;;1.50;;
8526;SDS011;4301;48.362;8.478;2023-05-10T04:01:57;1.30;;;1.20;;
8526;SDS011;4301;48.362;8.478;2023-05-10T04:04:24;1.50;;;1.33;;
8526;SDS011;4301;48.362;8.478;2023-05-10T04:06:51;1.10;;;1.10;;
8526;SDS011;4301;48.362;8.478;2023-05-10T04:09:18;1.40;;;1.40;;
8526;SDS011;4301;48.362;8.478;2023-05-10T04:11:45;1.73;;;1.63;;
8526;SDS011;4301;48.362;8.478;2023-05-10T04:14:11;1.63;;;1.53;;
8526;SDS011;4301;48.362;8.478;2023-05-10T04:16:38;1.70;;;1.60;;
8526;SDS011;4301;48.362;8.478;2023-05-10T04:19:07;1.10;;;1.10;;
8526;SDS011;4301;48.362;8.478;2023-05-10T04:21:34;1.30;;;1.20;;
8526;SDS011;4301;48.362;8.478;2023-05-10T04:24:00;1.00;;;1.00;;
8526;SDS011;4301;48.362;8.478;2023-05-10T04:26:27;0.90;;;0.90;;
8526;SDS011;4301;48.362;8.478;2023-05-10T04:28:55;0.80;;;0.80;;
8526;SDS011;4301;48.362;8.478;2023-05-10T04:31:22;0.70;;;0.70;;
8526;SDS011;4301;48.362;8.478;2023-05-10T04:33:49;0.73;;;0.73;;
8526;SDS011;4301;48.362;8.478;2023-05-10T04:36:17;0.77;;;0.77;;
8526;SDS011;4301;48.362;8.478;2023-05-10T04:38:44;2.73;;;0.70;;
8526;SDS011;4301;48.362;8.478;2023-05-10T04:41:11;0.83;;;0.80;;
8526;SDS011;4301;48.362;8.478;2023-05-10T04:43:38;0.70;;;0.70;;
8526;SDS011;4301;48.362;8.478;2023-05-10T04:46:05;1.13;;;1.03;;
8526;SDS011;4301;48.362;8.478;2023-05-10T04:48:32;0.80;;;0.80;;
8526;SDS011;4301;48.362;8.478;2023-05-10T04:50:59;0.80;;;0.80;;
8526;SDS011;4301;48.362;8.478;2023-05-10T04:53:27;0.80;;;0.80;;
8526;SDS011;4301;48.362;8.478;2023-05-10T04:55:54;2.30;;;0.70;;
8526;SDS011;4301;48.362;8.478;2023-05-10T04:58:21;3.50;;;0.80;;
8526;SDS011;4301;48.362;8.478;2023-05-10T05:00:48;0.60;;;0.60;;
8526;SDS011;4301;48.362;8.478;2023-05-10T05:03:15;0.70;;;0.70;;
8526;SDS011;4301;48.362;8.478;2023-05-10T05:05:43;0.70;;;0.70;;
8526;SDS011;4301;48.362;8.478;2023-05-10T05:08:10;0.70;;;0.70;;
8526;SDS011;4301;48.362;8.478;2023-05-10T05:10:38;0.70;;;0.70;;
8526;SDS011;4301;48.362;8.478;2023-05-10T05:13:05;1.77;;;0.63;;
8526;SDS011;4301;48.362;8.478;2023-05-10T05:15:32;0.70;;;0.70;;
8526;SDS011;4301;48.362;8.478;2023-05-10T05:17:59;0.70;;;0.70;;
8526;SDS011;4301;48.362;8.478;2023-05-10T05:20:26;0.60;;;0.60;;
8526;SDS011;4301;48.362;8.478;2023-05-10T05:22:53;0.80;;;0.80;;
8526;SDS011;4301;48.362;8.478;2023-05-10T05:25:20;0.93;;;0.90;;
8526;SDS011;4301;48.362;8.478;2023-05-10T05:27:48;0.80;;;0.80;;
8526;SDS011;4301;48.362;8.478;2023-05-10T05:30:15;0.90;;;0.90;;
8526;SDS011;4301;48.362;8.478;2023-05-10T05:32:42;0.90;;;0.90;;
8526;SDS011;4301;48.362;8.478;2023-05-10T05:35:09;1.07;;;1.00;;
8526;SDS011;4301;48.362;8.478;2023-05-10T05:37:36;0.90;;;0.90;;
8526;SDS011;4301;48.362;8.478;2023-05-10T05:40:03;0.93;;;0.93;;
8526;SDS011;4301;48.362;8.478;2023-05-10T05:42:31;0.93;;;0.93;;
8526;SDS011;4301;48.362;8.478;2023-05-10T05:44:59;1.20;;;1.17;;
8526;SDS011;4301;48.362;8.478;2023-05-10T05:47:26;0.97;;;0.93;;
8526;SDS011;4301;48.362;8.478;2023-05-10T05:49:53;1.30;;;1.20;;
8526;SDS011;4301;48.362;8.478;2023-05-10T05:52:20;1.10;;;1.00;;
8526;SDS011;4301;48.362;8.478;2023-05-10T05:54:47;1.10;;;1.00;;
8526;SDS011;4301;48.362;8.478;2023-05-10T05:57:14;1.37;;;1.10;;
8526;SDS011;4301;48.362;8.478;2023-05-10T05:59:41;1.00;;;1.00;;
8526;SDS011;4301;48.362;8.478;2023-05-10T06:02:10;1.23;;;1.00;;
8526;SDS011;4301;48.362;8.478;2023-05-10T06:04:37;1.00;;;1.00;;
8526;SDS011;4301;48.362;8.478;2023-05-10T06:07:04;0.90;;;0.90;;
8526;SDS011;4301;48.362;8.478;2023-05-10T06:09:31;1.00;;;1.00;;
8526;SDS011;4301;48.362;8.478;2023-05-10T06:11:58;0.90;;;0.90;;
8526;SDS011;4301;48.362;8.478;2023-05-10T06:14:25;3.90;;;1.00;;
8526;SDS011;4301;48.362;8.478;2023-05-10T06:16:52;0.90;;;0.90;;
8526;SDS011;4301;48.362;8.478;2023-05-10T06:19:20;0.80;;;0.80;;
8526;SDS011;4301;48.362;8.478;2023-05-10T06:21:47;0.90;;;0.90;;
8526;SDS011;4301;48.362;8.478;2023-05-10T06:24:14;1.00;;;1.00;;
8526;SDS011;4301;48.362;8.478;2023-05-10T06:26:41;0.90;;;0.90;;
8526;SDS011;4301;48.362;8.478;2023-05-10T06:29:08;1.03;;;0.90;;
8526;SDS011;4301;48.362;8.478;2023-05-10T06:31:35;0.90;;;0.90;;
8526;SDS011;4301;48.362;8.478;2023-05-10T06:34:02;0.90;;;0.90;;
8526;SDS011;4301;48.362;8.478;2023-05-10T06:36:30;0.90;;;0.90;;
8526;SDS011;4301;48.362;8.478;2023-05-10T06:38:57;0.87;;;0.87;;
8526;SDS011;4301;48.362;8.478;2023-05-10T06:41:24;0.90;;;0.90;;
8526;SDS011;4301;48.362;8.478;2023-05-10T06:43:51;1.00;;;1.00;;
8526;SDS011;4301;48.362;8.478;2023-05-10T06:46:18;1.30;;;0.80;;
8526;SDS011;4301;48.362;8.478;2023-05-10T06:48:45;0.83;;;0.83;;
8526;SDS011;4301;48.362;8.478;2023-05-10T06:51:12;0.93;;;0.93;;
8526;SDS011;4301;48.362;8.478;2023-05-10T06:53:40;1.23;;;0.90;;
8526;SDS011;4301;48.362;8.478;2023-05-10T06:56:07;1.97;;;1.73;;
8526;SDS011;4301;48.362;8.478;2023-05-10T06:58:34;1.27;;;1.27;;
8526;SDS011;4301;48.362;8.478;2023-05-10T07:01:01;0.90;;;0.90;;
8526;SDS011;4301;48.362;8.478;2023-05-10T07:03:29;1.40;;;0.77;;
8526;SDS011;4301;48.362;8.478;2023-05-10T07:05:59;0.90;;;0.90;;
8526;SDS011;4301;48.362;8.478;2023-05-10T07:08:29;0.87;;;0.87;;
8526;SDS011;4301;48.362;8.478;2023-05-10T07:11:00;0.80;;;0.80;;
8526;SDS011;4301;48.362;8.478;2023-05-10T07:13:28;0.73;;;0.73;;
8526;SDS011;4301;48.362;8.478;2023-05-10T07:15:56;0.70;;;0.70;;
8526;SDS011;4301;48.362;8.478;2023-05-10T07:18:23;0.80;;;0.80;;
8526;SDS011;4301;48.362;8.478;2023-05-10T07:20:50;0.83;;;0.70;;
8526;SDS011;4301;48.362;8.478;2023-05-10T07:23:17;0.70;;;0.70;;
8526;SDS011;4301;48.362;8.478;2023-05-10T07:25:45;1.57;;;0.70;;
8526;SDS011;4301;48.362;8.478;2023-05-10T07:28:14;0.60;;;0.60;;
8526;SDS011;4301;48.362;8.478;2023-05-10T07:30:42;2.03;;;0.87;;
8526;SDS011;4301;48.362;8.478;2023-05-10T07:33:10;3.33;;;2.60;;
8526;SDS011;4301;48.362;8.478;2023-05-10T07:35:38;3.07;;;2.23;;
8526;SDS011;4301;48.362;8.478;2023-05-10T07:38:05;2.30;;;2.10;;
8526;SDS011;4301;48.362;8.478;2023-05-10T07:40:32;2.07;;;1.87;;
8526;SDS011;4301;48.362;8.478;2023-05-10T07:42:59;0.83;;;0.83;;
8526;SDS011;4301;48.362;8.478;2023-05-10T07:45:28;1.20;;;1.20;;
8526;SDS011;4301;48.362;8.478;2023-05-10T07:47:56;0.70;;;0.70;;
8526;SDS011;4301;48.362;8.478;2023-05-10T07:50:23;3.20;;;1.40;;
8526;SDS011;4301;48.362;8.478;2023-05-10T07:52:50;0.87;;;0.73;;
8526;SDS011;4301;48.362;8.478;2023-05-10T07:55:18;2.23;;;1.20;;
8526;SDS011;4301;48.362;8.478;2023-05-10T07:57:46;0.83;;;0.60;;
8526;SDS011;4301;48.362;8.478;2023-05-10T08:00:13;0.70;;;0.70;;
8526;SDS011;4301;48.362;8.478;2023-05-10T08:02:45;1.77;;;1.50;;
8526;SDS011;4301;48.362;8.478;2023-05-10T08:05:12;0.70;;;0.70;;
8526;SDS011;4301;48.362;8.478;2023-05-10T08:07:39;0.70;;;0.70;;
8526;SDS011;4301;48.362;8.478;2023-05-10T08:10:08;0.70;;;0.70;;
8526;SDS011;4301;48.362;8.478;2023-05-10T08:12:36;0.60;;;0.60;;
8526;SDS011;4301;48.362;8.478;2023-05-10T08:15:03;0.60;;;0.60;;
8526;SDS011;4301;48.362;8.478;2023-05-10T08:17:31;1.20;;;0.70;;
8526;SDS011;4301;48.362;8.478;2023-05-10T08:20:00;0.87;;;0.87;;
8526;SDS011;4301;48.362;8.478;2023-05-10T08:22:27;0.80;;;0.80;;
8526;SDS011;4301;48.362;8.478;2023-05-10T08:24:54;0.70;;;0.70;;
8526;SDS011;4301;48.362;8.478;2023-05-10T08:27:21;0.80;;;0.80;;
8526;SDS011;4301;48.362;8.478;2023-05-10T08:29:48;0.87;;;0.87;;
8526;SDS011;4301;48.362;8.478;2023-05-10T08:32:15;0.90;;;0.90;;
8526;SDS011;4301;48.362;8.478;2023-05-10T08:34:42;1.00;;;1.00;;
8526;SDS011;4301;48.362;8.478;2023-05-10T08:37:10;0.83;;;0.83;;
8526;SDS011;4301;48.362;8.478;2023-05-10T08:39:38;1.07;;;1.07;;
8526;SDS011;4301;48.362;8.478;2023-05-10T08:42:05;0.97;;;0.97;;
8526;SDS011;4301;48.362;8.478;2023-05-10T08:44:34;1.10;;;1.00;;
8526;SDS011;4301;48.362;8.478;2023-05-10T08:47:02;1.00;;;1.00;;
8526;SDS011;4301;48.362;8.478;2023-05-10T08:49:31;0.93;;;0.93;;
8526;SDS011;4301;48.362;8.478;2023-05-10T08:52:00;0.80;;;0.80;;
8526;SDS011;4301;48.362;8.478;2023-05-10T08:54:32;1.10;;;1.10;;
8526;SDS011;4301;48.362;8.478;2023-05-10T08:57:00;0.80;;;0.80;;
8526;SDS011;4301;48.362;8.478;2023-05-10T08:59:27;0.80;;;0.80;;
8526;SDS011;4301;48.362;8.478;2023-05-10T09:01:56;0.90;;;0.90;;
8526;SDS011;4301;48.362;8.478;2023-05-10T09:04:24;4.53;;;0.93;;
8526;SDS011;4301;48.362;8.478;2023-05-10T09:06:51;1.00;;;0.93;;
8526;SDS011;4301;48.362;8.478;2023-05-10T09:09:20;0.90;;;0.90;;
8526;SDS011;4301;48.362;8.478;2023-05-10T09:11:51;0.90;;;0.90;;
8526;SDS011;4301;48.362;8.478;2023-05-10T09:14:18;1.10;;;1.10;;
8526;SDS011;4301;48.362;8.478;2023-05-10T09:16:46;1.47;;;1.37;;
8526;SDS011;4301;48.362;8.478;2023-05-10T09:19:14;1.33;;;1.23;;
8526;SDS011;4301;48.362;8.478;2023-05-10T09:21:40;0.93;;;0.93;;
8526;SDS011;4301;48.362;8.478;2023-05-10T09:24:08;1.90;;;1.00;;
8526;SDS011;4301;48.362;8.478;2023-05-10T09:26:35;1.10;;;0.90;;
8526;SDS011;4301;48.362;8.478;2023-05-10T09:29:14;2.53;;;0.90;;
8526;SDS011;4301;48.362;8.478;2023-05-10T09:31:45;0.90;;;0.90;;
8526;SDS011;4301;48.362;8.478;2023-05-10T09:34:16;0.80;;;0.80;;
8526;SDS011;4301;48.362;8.478;2023-05-10T09:36:50;0.90;;;0.90;;
8526;SDS011;4301;48.362;8.478;2023-05-10T09:39:18;0.80;;;0.80;;
8526;SDS011;4301;48.362;8.478;2023-05-10T09:41:46;1.10;;;1.10;;
8526;SDS011;4301;48.362;8.478;2023-05-10T09:44:17;0.90;;;0.90;;
8526;SDS011;4301;48.362;8.478;2023-05-10T09:46:49;1.50;;;1.00;;
8526;SDS011;4301;48.362;8.478;2023-05-10T09:49:18;1.00;;;1.00;;
8526;SDS011;4301;48.362;8.478;2023-05-10T09:51:45;2.60;;;0.90;;
8526;SDS011;4301;48.362;8.478;2023-05-10T09:54:13;0.90;;;0.90;;
8526;SDS011;4301;48.362;8.478;2023-05-10T09:56:41;0.90;;;0.90;;
8526;SDS011;4301;48.362;8.478;2023-05-10T09:59:09;2.10;;;0.87;;
8526;SDS011;4301;48.362;8.478;2023-05-10T10:01:39;2.10;;;0.83;;
8526;SDS011;4301;48.362;8.478;2023-05-10T10:04:08;0.80;;;0.80;;
8526;SDS011;4301;48.362;8.478;2023-05-10T10:06:37;3.50;;;1.17;;
8526;SDS011;4301;48.362;8.478;2023-05-10T10:09:05;1.03;;;0.93;;
8526;SDS011;4301;48.362;8.478;2023-05-10T10:11:33;1.37;;;1.03;;
8526;SDS011;4301;48.362;8.478;2023-05-10T10:14:01;2.90;;;1.00;;
8526;SDS011;4301;48.362;8.478;2023-05-10T10:16:29;0.90;;;0.90;;
8526;SDS011;4301;48.362;8.478;2023-05-10T10:18:58;3.20;;;0.80;;
8526;SDS011;4301;48.362;8.478;2023-05-10T10:21:25;0.80;;;0.80;;
8526;SDS011;4301;48.362;8.478;2023-05-10T10:23:53;1.70;;;0.93;;
8526;SDS011;4301;48.362;8.478;2023-05-10T10:26:21;1.00;;;1.00;;
8526;SDS011;4301;48.362;8.478;2023-05-10T10:28:51;1.10;;;1.00;;
8526;SDS011;4301;48.362;8.478;2023-05-10T10:31:30;1.03;;;1.03;;
8526;SDS011;4301;48.362;8.478;2023-05-10T10:34:06;2.27;;;1.67;;
8526;SDS011;4301;48.362;8.478;2023-05-10T10:36:39;3.03;;;1.47;;
8526;SDS011;4301;48.362;8.478;2023-05-10T10:39:09;2.03;;;1.63;;
8526;SDS011;4301;48.362;8.478;2023-05-10T10:41:39;3.30;;;2.10;;
8526;SDS011;4301;48.362;8.478;2023-05-10T10:44:38;2.43;;;1.10;;
8526;SDS011;4301;48.362;8.478;2023-05-10T10:47:22;1.00;;;1.00;;
8526;SDS011;4301;48.362;8.478;2023-05-10T10:50:02;1.07;;;1.03;;
8526;SDS011;4301;48.362;8.478;2023-05-10T10:52:32;1.00;;;1.00;;
8526;SDS011;4301;48.362;8.478;2023-05-10T10:55:01;1.50;;;1.40;;
8526;SDS011;4301;48.362;8.478;2023-05-10T10:57:33;2.13;;;2.00;;
8526;SDS011;4301;48.362;8.478;2023-05-10T11:00:20;1.60;;;1.47;;
8526;SDS011;4301;48.362;8.478;2023-05-10T11:02:49;1.27;;;1.20;;
8526;SDS011;4301;48.362;8.478;2023-05-10T11:05:25;1.13;;;1.10;;
8526;SDS011;4301;48.362;8.478;2023-05-10T11:08:08;2.93;;;1.00;;
8526;SDS011;4301;48.362;8.478;2023-05-10T11:10:38;0.80;;;0.80;;
8526;SDS011;4301;48.362;8.478;2023-05-10T11:13:07;1.33;;;1.10;;
8526;SDS011;4301;48.362;8.478;2023-05-10T11:15:36;1.53;;;1.43;;
8526;SDS011;4301;48.362;8.478;2023-05-10T11:18:16;0.90;;;0.90;;
8526;SDS011;4301;48.362;8.478;2023-05-10T11:20:50;3.00;;;1.13;;
8526;SDS011;4301;48.362;8.478;2023-05-10T11:23:18;1.37;;;1.27;;
8526;SDS011;4301;48.362;8.478;2023-05-10T11:25:47;1.40;;;1.07;;
8526;SDS011;4301;48.362;8.478;2023-05-10T11:28:16;1.10;;;1.00;;
8526;SDS011;4301;48.362;8.478;2023-05-10T11:30:45;1.97;;;1.30;;
8526;SDS011;4301;48.362;8.478;2023-05-10T11:33:15;1.33;;;1.23;;
8526;SDS011;4301;48.362;8.478;2023-05-10T11:35:44;0.83;;;0.83;;
8526;SDS011;4301;48.362;8.478;2023-05-10T11:38:13;1.40;;;1.30;;
8526;SDS011;4301;48.362;8.478;2023-05-10T11:40:40;0.90;;;0.90;;
8526;SDS011;4301;48.362;8.478;2023-05-10T11:43:08;1.20;;;1.17;;
8526;SDS011;4301;48.362;8.478;2023-05-10T11:45:36;2.57;;;1.10;;
8526;SDS011;4301;48.362;8.478;2023-05-10T11:48:03;0.90;;;0.90;;
8526;SDS011;4301;48.362;8.478;2023-05-10T11:50:30;0.70;;;0.70;;
8526;SDS011;4301;48.362;8.478;2023-05-10T11:52:57;1.70;;;0.80;;
8526;SDS011;4301;48.362;8.478;2023-05-10T11:55:26;0.93;;;0.90;;
8526;SDS011;4301;48.362;8.478;2023-05-10T11:57:55;2.13;;;1.20;;
8526;SDS011;4301;48.362;8.478;2023-05-10T12:00:27;0.90;;;0.90;;
8526;SDS011;4301;48.362;8.478;2023-05-10T12:02:54;3.17;;;1.00;;
8526;SDS011;4301;48.362;8.478;2023-05-10T12:05:21;1.17;;;1.10;;
8526;SDS011;4301;48.362;8.478;2023-05-10T12:07:49;0.90;;;0.90;;
8526;SDS011;4301;48.362;8.478;2023-05-10T12:10:15;1.37;;;1.00;;
8526;SDS011;4301;48.362;8.478;2023-05-10T12:12:52;1.00;;;1.00;;
8526;SDS011;4301;48.362;8.478;2023-05-10T12:15:19;1.97;;;0.83;;
8526;SDS011;4301;48.362;8.478;2023-05-10T12:17:48;1.27;;;1.00;;
8526;SDS011;4301;48.362;8.478;2023-05-10T12:20:16;1.00;;;0.90;;
8526;SDS011;4301;48.362;8.478;2023-05-10T12:22:47;1.30;;;1.00;;
8526;SDS011;4301;48.362;8.478;2023-05-10T12:25:17;1.80;;;0.90;;
8526;SDS011;4301;48.362;8.478;2023-05-10T12:27:52;0.90;;;0.90;;
8526;SDS011;4301;48.362;8.478;2023-05-10T12:30:21;0.93;;;0.93;;
8526;SDS011;4301;48.362;8.478;2023-05-10T12:32:48;0.90;;;0.90;;
8526;SDS011;4301;48.362;8.478;2023-05-10T12:35:16;0.93;;;0.93;;
8526;SDS011;4301;48.362;8.478;2023-05-10T12:37:46;1.10;;;1.10;;
8526;SDS011;4301;48.362;8.478;2023-05-10T12:40:13;1.57;;;1.03;;
8526;SDS011;4301;48.362;8.478;2023-05-10T12:42:40;1.00;;;0.93;;
8526;SDS011;4301;48.362;8.478;2023-05-10T12:45:09;1.90;;;1.20;;
8526;SDS011;4301;48.362;8.478;2023-05-10T12:47:36;0.90;;;0.90;;
8526;SDS011;4301;48.362;8.478;2023-05-10T12:50:04;1.10;;;0.90;;
8526;SDS011;4301;48.362;8.478;2023-05-10T12:52:32;0.70;;;0.70;;
8526;SDS011;4301;48.362;8.478;2023-05-10T12:54:59;1.43;;;1.20;;
8526;SDS011;4301;48.362;8.478;2023-05-10T12:57:26;0.90;;;0.90;;
8526;SDS011;4301;48.362;8.478;2023-05-10T12:59:53;1.60;;;0.90;;
8526;SDS011;4301;48.362;8.478;2023-05-10T13:02:22;0.80;;;0.80;;
8526;SDS011;4301;48.362;8.478;2023-05-10T13:04:49;1.10;;;1.00;;
8526;SDS011;4301;48.362;8.478;2023-05-10T13:07:17;1.07;;;1.00;;
8526;SDS011;4301;48.362;8.478;2023-05-10T13:09:44;0.80;;;0.80;;
8526;SDS011;4301;48.362;8.478;2023-05-10T13:12:12;0.90;;;0.90;;
8526;SDS011;4301;48.362;8.478;2023-05-10T13:14:39;0.80;;;0.80;;
8526;SDS011;4301;48.362;8.478;2023-05-10T13:17:06;0.70;;;0.70;;
8526;SDS011;4301;48.362;8.478;2023-05-10T13:19:35;1.17;;;0.90;;
8526;SDS011;4301;48.362;8.478;2023-05-10T13:22:02;0.83;;;0.83;;
8526;SDS011;4301;48.362;8.478;2023-05-10T13:24:29;0.80;;;0.80;;
8526;SDS011;4301;48.362;8.478;2023-05-10T13:26:56;1.60;;;0.70;;
8526;SDS011;4301;48.362;8.478;2023-05-10T13:29:23;0.80;;;0.80;;
8526;SDS011;4301;48.362;8.478;2023-05-10T13:31:50;1.10;;;0.80;;
8526;SDS011;4301;48.362;8.478;2023-05-10T13:34:17;0.80;;;0.80;;
8526;SDS011;4301;48.362;8.478;2023-05-10T13:36:47;0.90;;;0.90;;
8526;SDS011;4301;48.362;8.478;2023-05-10T13:39:14;2.40;;;0.90;;
8526;SDS011;4301;48.362;8.478;2023-05-10T13:41:41;0.73;;;0.73;;
8526;SDS011;4301;48.362;8.478;2023-05-10T13:44:08;0.80;;;0.80;;
8526;SDS011;4301;48.362;8.478;2023-05-10T13:46:37;1.30;;;1.10;;
8526;SDS011;4301;48.362;8.478;2023-05-10T13:49:04;2.23;;;1.00;;
8526;SDS011;4301;48.362;8.478;2023-05-10T13:51:31;0.77;;;0.77;;
8526;SDS011;4301;48.362;8.478;2023-05-10T13:53:59;1.73;;;0.90;;
8526;SDS011;4301;48.362;8.478;2023-05-10T13:56:26;0.90;;;0.90;;
8526;SDS011;4301;48.362;8.478;2023-05-10T13:58:53;0.90;;;0.90;;
8526;SDS011;4301;48.362;8.478;2023-05-10T14:01:20;1.00;;;1.00;;
8526;SDS011;4301;48.362;8.478;2023-05-10T14:03:47;1.80;;;1.20;;
8526;SDS011;4301;48.362;8.478;2023-05-10T14:06:14;1.13;;;1.10;;
8526;SDS011;4301;48.362;8.478;2023-05-10T14:08:41;1.93;;;1.20;;
8526;SDS011;4301;48.362;8.478;2023-05-10T14:11:09;0.90;;;0.90;;
8526;SDS011;4301;48.362;8.478;2023-05-10T14:13:36;1.00;;;1.00;;
8526;SDS011;4301;48.362;8.478;2023-05-10T14:16:04;1.10;;;1.10;;
8526;SDS011;4301;48.362;8.478;2023-05-10T14:18:31;1.00;;;1.00;;
8526;SDS011;4301;48.362;8.478;2023-05-10T14:20:58;4.00;;;1.07;;
8526;SDS011;4301;48.362;8.478;2023-05-10T14:23:25;1.10;;;1.10;;
8526;SDS011;4301;48.362;8.478;2023-05-10T14:25:53;2.23;;;1.10;;
8526;SDS011;4301;48.362;8.478;2023-05-10T14:28:22;1.70;;;1.33;;
8526;SDS011;4301;48.362;8.478;2023-05-10T14:30:50;1.80;;;1.10;;
8526;SDS011;4301;48.362;8.478;2023-05-10T14:33:17;1.40;;;1.00;;
8526;SDS011;4301;48.362;8.478;2023-05-10T14:35:44;1.57;;;1.00;;
8526;SDS011;4301;48.362;8.478;2023-05-10T14:38:11;1.00;;;0.90;;
8526;SDS011;4301;48.362;8.478;2023-05-10T14:40:38;2.93;;;0.93;;
8526;SDS011;4301;48.362;8.478;2023-05-10T14:43:05;1.00;;;1.00;;
8526;SDS011;4301;48.362;8.478;2023-05-10T14:45:34;2.53;;;1.20;;
8526;SDS011;4301;48.362;8.478;2023-05-10T14:48:01;1.30;;;1.07;;
8526;SDS011;4301;48.362;8.478;2023-05-10T14:50:29;1.10;;;1.00;;
8526;SDS011;4301;48.362;8.478;2023-05-10T14:52:56;1.50;;;1.30;;
8526;SDS011;4301;48.362;8.478;2023-05-10T14:55:24;2.00;;;1.00;;
8526;SDS011;4301;48.362;8.478;2023-05-10T14:57:51;2.73;;;0.97;;
8526;SDS011;4301;48.362;8.478;2023-05-10T15:00:18;3.03;;;1.60;;
8526;SDS011;4301;48.362;8.478;2023-05-10T15:02:47;1.40;;;1.20;;
8526;SDS011;4301;48.362;8.478;2023-05-10T15:05:14;1.00;;;1.00;;
8526;SDS011;4301;48.362;8.478;2023-05-10T15:07:41;1.17;;;1.00;;
8526;SDS011;4301;48.362;8.478;2023-05-10T15:10:09;0.90;;;0.90;;
8526;SDS011;4301;48.362;8.478;2023-05-10T15:12:36;1.67;;;1.10;;
8526;SDS011;4301;48.362;8.478;2023-05-10T15:15:04;1.27;;;1.00;;
8526;SDS011;4301;48.362;8.478;2023-05-10T15:17:32;2.70;;;1.20;;
8526;SDS011;4301;48.362;8.478;2023-05-10T15:20:00;0.90;;;0.90;;
8526;SDS011;4301;48.362;8.478;2023-05-10T15:22:29;1.30;;;1.20;;
8526;SDS011;4301;48.362;8.478;2023-05-10T15:24:56;1.40;;;0.80;;